Pegasus Peta — V7HR7 — position and weather

sailwx.info

Track history (hours):
 
Tides and Currents Weather Stations Pressure Air Temp Water Temp Dewpoint Dewpoint Depression Visibility Wind Speed Wind Dir Waves Ship Positions

Pegasus Peta

Last reported at 2018-Jun-18 19:48 UTC. Time now 2018-Jun-19 20:09 UTC.
Position N 35°02' E 129°08'.

Length 146 m; draft 8.7 m.

Type: Cargo ship. MMSI: 538005864.

Date/timePositionNaut miles runAvg speedWind from/ knotsBaromVisibWave heightAir tempDewpointWater temp
2018-Jun-18 19:48N 35°02' E 129°08'311.4
2018-Jun-18 19:30N 35°05' E 129°06'1 1.4
2018-Jun-18 18:58N 35°06' E 129°06'0 0.0
2018-Jun-18 18:28N 35°06' E 129°06'0 0.0
2018-Jun-18 17:58N 35°06' E 129°06'0 0.0
2018-Jun-18 17:28N 35°06' E 129°06'0 0.1
2018-Jun-18 16:58N 35°06' E 129°06'0 0.1
2018-Jun-18 16:28N 35°06' E 129°06'0 0.0
2018-Jun-18 15:58N 35°06' E 129°06'0 0.0
2018-Jun-18 15:19N 35°06' E 129°06'0 0.0
2018-Jun-18 14:58N 35°06' E 129°06'0 0.0
2018-Jun-18 14:28N 35°06' E 129°06'0 0.0
2018-Jun-18 13:58N 35°06' E 129°06'0 0.0
2018-Jun-18 13:28N 35°06' E 129°06'0 0.0
2018-Jun-18 12:58N 35°06' E 129°06'0 0.0
2018-Jun-18 12:28N 35°06' E 129°06'0 0.0
2018-Jun-18 11:58N 35°06' E 129°06'0 0.0
2018-Jun-18 11:25N 35°06' E 129°06'0 0.0
2018-Jun-18 10:58N 35°06' E 129°06'0 0.0
2018-Jun-18 10:28N 35°06' E 129°06'0 0.0
2018-Jun-18 09:58N 35°06' E 129°06'0 0.0
2018-Jun-18 09:25N 35°06' E 129°06'0 0.0
2018-Jun-18 08:58N 35°06' E 129°06'0 0.0
2018-Jun-18 08:28N 35°06' E 129°06'0 0.0
2018-Jun-18 07:55N 35°06' E 129°06'0 0.0
2018-Jun-18 07:25N 35°06' E 129°06'0 0.0
2018-Jun-18 06:58N 35°06' E 129°06'0 0.0
2018-Jun-18 06:19N 35°06' E 129°06'0 0.0
2018-Jun-18 05:58N 35°06' E 129°06'0 0.0
2018-Jun-18 05:25N 35°06' E 129°06'0 0.0
2018-Jun-18 04:58N 35°06' E 129°06'0 0.0
2018-Jun-18 04:28N 35°06' E 129°06'0 0.0
2018-Jun-18 03:58N 35°06' E 129°06'0 0.0
2018-Jun-18 03:28N 35°06' E 129°06'0 0.0
2018-Jun-18 02:58N 35°06' E 129°06'0 0.0
2018-Jun-18 02:28N 35°06' E 129°06'0 0.2
2018-Jun-18 02:00N 35°06' E 129°06'0 0.1
2018-Jun-18 01:30N 35°06' E 129°06'3 5.8
2018-Jun-18 01:01N 35°04' E 129°08'4 1.1
2018-Jun-17 21:22N 35°03' E 129°04'0 0.0
2018-Jun-17 20:16N 35°03' E 129°04'0 0.0
2018-Jun-17 18:13N 35°03' E 129°04'0 0.0
2018-Jun-17 17:46N 35°03' E 129°04'0 0.0
2018-Jun-17 15:04N 35°03' E 129°04'0 0.1
2018-Jun-17 14:40N 35°03' E 129°04'0 0.1
2018-Jun-17 14:19N 35°02' E 129°04'0 0.1
2018-Jun-17 13:19N 35°03' E 129°04'0 0.1
2018-Jun-17 10:08N 35°03' E 129°04'0 0.5
2018-Jun-17 09:39N 35°03' E 129°04'0 0.4
2018-Jun-17 09:23N 35°03' E 129°04'6 9.5
2018-Jun-17 08:48N 35°00' E 129°10'25212.9
2018-Jun-16 13:21N 34°24' E 134°13'716.3
2018-Jun-16 12:57N 34°25' E 134°21'715.5
2018-Jun-16 12:30N 34°28' E 134°29'815.7
2018-Jun-16 12:00N 34°31' E 134°37'816.7
2018-Jun-16 11:30N 34°34' E 134°47'918.0
2018-Jun-16 11:01N 34°37' E 134°57'714.6
2018-Jun-16 10:31N 34°35' E 135°05'815.6
2018-Jun-16 10:00N 34°27' E 135°03'815.1
2018-Jun-16 09:30N 34°20' E 135°01'612.1
2018-Jun-16 09:00N 34°14' E 135°03'5 9.1
2018-Jun-16 08:29N 34°12' E 135°09'0 0.0
2018-Jun-16 07:59N 34°12' E 135°09'0 0.0
2018-Jun-16 07:29N 34°12' E 135°09'0 0.0
2018-Jun-16 06:59N 34°12' E 135°09'0 0.0
2018-Jun-16 06:29N 34°12' E 135°09'0 0.0
2018-Jun-16 05:59N 34°12' E 135°09'0 0.0
2018-Jun-16 05:31N 34°12' E 135°09'1 1.4
2018-Jun-16 05:00N 34°13' E 135°08'5 9.7
2018-Jun-16 04:30N 34°09' E 135°04'815.2
2018-Jun-16 04:00N 34°02' E 135°02'815.6
2018-Jun-16 03:30N 33°54' E 135°00'713.8
2018-Jun-16 03:00N 33°48' E 135°04'241 6.0
2018-Jun-14 10:52N 35°06' E 139°41'514.6
2018-Jun-14 10:30N 35°10' E 139°45'612.5
2018-Jun-14 10:00N 35°17' E 139°45'613.2
2018-Jun-14 09:31N 35°23' E 139°42'815.5
2018-Jun-14 09:00N 35°28' E 139°49'612.0
2018-Jun-14 08:30N 35°34' E 139°49'4 7.7
2018-Jun-14 07:58N 35°37' E 139°46'0 0.0
2018-Jun-14 04:37N 35°37' E 139°46'0 0.0
2018-Jun-14 04:25N 35°37' E 139°46'0 0.0
2018-Jun-14 02:55N 35°37' E 139°46'0 0.0
2018-Jun-14 02:25N 35°37' E 139°46'0 0.0
2018-Jun-14 00:28N 35°37' E 139°46'0 0.0
2018-Jun-13 23:49N 35°37' E 139°46'0 0.0
2018-Jun-13 22:10N 35°37' E 139°46'0 0.4
2018-Jun-13 21:59N 35°37' E 139°46'3 5.8
2018-Jun-13 21:30N 35°35' E 139°48'613.0
2018-Jun-13 21:00N 35°30' E 139°52'714.1
2018-Jun-13 20:30N 35°26' E 139°45'3 6.9
2018-Jun-13 20:00N 35°26' E 139°41'0 0.5
2018-Jun-13 19:28N 35°26' E 139°41'0 0.0
2018-Jun-13 18:58N 35°26' E 139°41'0 0.0
2018-Jun-13 18:28N 35°26' E 139°41'0 0.0
2018-Jun-13 17:58N 35°26' E 139°41'0 0.0
2018-Jun-13 17:28N 35°26' E 139°41'0 0.0
2018-Jun-13 16:58N 35°26' E 139°41'0 0.0
2018-Jun-13 16:28N 35°26' E 139°41'0 0.0
2018-Jun-13 15:58N 35°26' E 139°41'0 0.0
2018-Jun-13 15:28N 35°26' E 139°41'0 0.0
2018-Jun-13 14:58N 35°26' E 139°41'0 0.0
2018-Jun-13 14:28N 35°26' E 139°41'0 0.0
2018-Jun-13 13:58N 35°26' E 139°41'0 0.0
2018-Jun-13 13:28N 35°26' E 139°41'0 0.0
2018-Jun-13 12:58N 35°26' E 139°41'0 0.0
2018-Jun-13 12:28N 35°26' E 139°41'0 0.0
2018-Jun-13 11:58N 35°26' E 139°41'0 0.0
2018-Jun-13 11:28N 35°26' E 139°41'0 0.0
2018-Jun-13 10:58N 35°26' E 139°41'0 0.0
2018-Jun-13 10:28N 35°26' E 139°41'0 0.0
2018-Jun-13 09:58N 35°26' E 139°41'0 0.0
2018-Jun-13 09:28N 35°26' E 139°41'0 0.0
2018-Jun-13 08:58N 35°26' E 139°41'0 0.0
2018-Jun-13 08:28N 35°26' E 139°41'0 0.0
2018-Jun-13 07:58N 35°26' E 139°41'0 0.0
2018-Jun-13 07:28N 35°26' E 139°41'0 0.4
2018-Jun-13 07:00N 35°26' E 139°41'2 4.4
2018-Jun-13 06:31N 35°26' E 139°43'3 5.3
2018-Jun-13 06:01N 35°23' E 139°43'3 5.8
2018-Jun-13 05:31N 35°20' E 139°43'611.7
2018-Jun-13 05:00N 35°15' E 139°47'610.9
2018-Jun-13 04:30N 35°10' E 139°47'4 8.7
2018-Jun-13 04:00N 35°06' E 139°45'5 9.0
2018-Jun-13 03:30N 35°03' E 139°41'23811.0
2018-Jun-12 05:48N 33°44' E 135°09'515.8
2018-Jun-12 05:28N 33°48' E 135°05'715.0
2018-Jun-12 05:00N 33°53' E 135°00'815.5
2018-Jun-12 04:30N 34°01' E 134°59'816.0
2018-Jun-12 04:00N 34°09' E 134°59'918.1
2018-Jun-12 03:30N 34°18' E 134°59'816.6
2018-Jun-12 03:00N 34°26' E 135°01'816.6
2018-Jun-12 02:30N 34°34' E 135°03'714.0
2018-Jun-12 01:59N 34°35' E 134°54'816.2
2018-Jun-12 01:30N 34°32' E 134°45'815.5
2018-Jun-12 01:00N 34°29' E 134°37'713.6
2018-Jun-12 00:30N 34°26' E 134°29'713.5
2018-Jun-11 23:59N 34°24' E 134°21'613.2
2018-Jun-11 23:30N 34°24' E 134°13'254 6.8
2018-Jun-10 10:02N 35°03' E 129°09'012.9
2018-Jun-10 10:00N 35°03' E 129°08'3 6.2
2018-Jun-10 09:27N 35°06' E 129°06'0 0.0
2018-Jun-10 08:57N 35°06' E 129°06'0 0.0
2018-Jun-10 08:30N 35°06' E 129°06'0 0.0
2018-Jun-10 08:00N 35°06' E 129°06'0 0.0
2018-Jun-10 07:27N 35°06' E 129°06'0 0.0
2018-Jun-10 07:00N 35°06' E 129°06'0 0.0
2018-Jun-10 06:30N 35°06' E 129°06'0 0.0
2018-Jun-10 06:00N 35°06' E 129°06'0 0.0
2018-Jun-10 05:30N 35°06' E 129°06'0 0.0
2018-Jun-10 05:00N 35°06' E 129°06'0 0.0
2018-Jun-10 04:30N 35°06' E 129°06'0 0.0
2018-Jun-10 04:00N 35°06' E 129°06'0 0.0
2018-Jun-10 03:30N 35°06' E 129°06'0 0.0
2018-Jun-10 03:00N 35°06' E 129°06'0 0.0
2018-Jun-10 02:30N 35°06' E 129°06'0 0.0
2018-Jun-10 02:00N 35°06' E 129°06'0 0.0
2018-Jun-10 01:30N 35°06' E 129°06'0 0.0
2018-Jun-10 01:00N 35°06' E 129°06'0 0.0
2018-Jun-10 00:30N 35°06' E 129°06'0 0.0
2018-Jun-10 00:00N 35°06' E 129°06'0 0.0
2018-Jun-09 23:27N 35°06' E 129°06'0 0.0
2018-Jun-09 23:00N 35°06' E 129°06'0 0.0
2018-Jun-09 22:30N 35°06' E 129°06'0 0.0
2018-Jun-09 22:00N 35°06' E 129°06'0 0.0
2018-Jun-09 21:30N 35°06' E 129°06'0 0.0
2018-Jun-09 21:00N 35°06' E 129°06'0 0.0
2018-Jun-09 20:30N 35°06' E 129°06'0 0.0
2018-Jun-09 20:00N 35°06' E 129°06'0 0.0
2018-Jun-09 19:30N 35°06' E 129°06'0 0.0
2018-Jun-09 19:00N 35°06' E 129°06'0 0.3
2018-Jun-09 18:30N 35°06' E 129°06'4 8.5
2018-Jun-09 18:00N 35°04' E 129°10'  
Track history (hours):
 
Tides and Currents Weather Stations Pressure Air Temp Water Temp Dewpoint Dewpoint Depression Visibility Wind Speed Wind Dir Waves Ship Positions

Pegasus Peta

Last reported at 2018-Jun-18 19:48 UTC. Time now 2018-Jun-19 20:09 UTC.
Position N 35°02' E 129°08'.

Length 146 m; draft 8.7 m.

Type: Cargo ship. MMSI: 538005864.

Date/timePositionNaut miles runAvg speedWind from/ knotsBaromVisibWave heightAir tempDewpointWater temp
2018-Jun-18 19:48N 35°02' E 129°08'311.4
2018-Jun-18 19:30N 35°05' E 129°06'1 1.4
2018-Jun-18 18:58N 35°06' E 129°06'0 0.0
2018-Jun-18 18:28N 35°06' E 129°06'0 0.0
2018-Jun-18 17:58N 35°06' E 129°06'0 0.0
2018-Jun-18 17:28N 35°06' E 129°06'0 0.1
2018-Jun-18 16:58N 35°06' E 129°06'0 0.1
2018-Jun-18 16:28N 35°06' E 129°06'0 0.0
2018-Jun-18 15:58N 35°06' E 129°06'0 0.0
2018-Jun-18 15:19N 35°06' E 129°06'0 0.0
2018-Jun-18 14:58N 35°06' E 129°06'0 0.0
2018-Jun-18 14:28N 35°06' E 129°06'0 0.0
2018-Jun-18 13:58N 35°06' E 129°06'0 0.0
2018-Jun-18 13:28N 35°06' E 129°06'0 0.0
2018-Jun-18 12:58N 35°06' E 129°06'0 0.0
2018-Jun-18 12:28N 35°06' E 129°06'0 0.0
2018-Jun-18 11:58N 35°06' E 129°06'0 0.0
2018-Jun-18 11:25N 35°06' E 129°06'0 0.0
2018-Jun-18 10:58N 35°06' E 129°06'0 0.0
2018-Jun-18 10:28N 35°06' E 129°06'0 0.0
2018-Jun-18 09:58N 35°06' E 129°06'0 0.0
2018-Jun-18 09:25N 35°06' E 129°06'0 0.0
2018-Jun-18 08:58N 35°06' E 129°06'0 0.0
2018-Jun-18 08:28N 35°06' E 129°06'0 0.0
2018-Jun-18 07:55N 35°06' E 129°06'0 0.0
2018-Jun-18 07:25N 35°06' E 129°06'0 0.0
2018-Jun-18 06:58N 35°06' E 129°06'0 0.0
2018-Jun-18 06:19N 35°06' E 129°06'0 0.0
2018-Jun-18 05:58N 35°06' E 129°06'0 0.0
2018-Jun-18 05:25N 35°06' E 129°06'0 0.0
2018-Jun-18 04:58N 35°06' E 129°06'0 0.0
2018-Jun-18 04:28N 35°06' E 129°06'0 0.0
2018-Jun-18 03:58N 35°06' E 129°06'0 0.0
2018-Jun-18 03:28N 35°06' E 129°06'0 0.0
2018-Jun-18 02:58N 35°06' E 129°06'0 0.0
2018-Jun-18 02:28N 35°06' E 129°06'0 0.2
2018-Jun-18 02:00N 35°06' E 129°06'0 0.1
2018-Jun-18 01:30N 35°06' E 129°06'3 5.8
2018-Jun-18 01:01N 35°04' E 129°08'4 1.1
2018-Jun-17 21:22N 35°03' E 129°04'0 0.0
2018-Jun-17 20:16N 35°03' E 129°04'0 0.0
2018-Jun-17 18:13N 35°03' E 129°04'0 0.0
2018-Jun-17 17:46N 35°03' E 129°04'0 0.0
2018-Jun-17 15:04N 35°03' E 129°04'0 0.1
2018-Jun-17 14:40N 35°03' E 129°04'0 0.1
2018-Jun-17 14:19N 35°02' E 129°04'0 0.1
2018-Jun-17 13:19N 35°03' E 129°04'0 0.1
2018-Jun-17 10:08N 35°03' E 129°04'0 0.5
2018-Jun-17 09:39N 35°03' E 129°04'0 0.4
2018-Jun-17 09:23N 35°03' E 129°04'6 9.5
2018-Jun-17 08:48N 35°00' E 129°10'25212.9
2018-Jun-16 13:21N 34°24' E 134°13'716.3
2018-Jun-16 12:57N 34°25' E 134°21'715.5
2018-Jun-16 12:30N 34°28' E 134°29'815.7
2018-Jun-16 12:00N 34°31' E 134°37'816.7
2018-Jun-16 11:30N 34°34' E 134°47'918.0
2018-Jun-16 11:01N 34°37' E 134°57'714.6
2018-Jun-16 10:31N 34°35' E 135°05'815.6
2018-Jun-16 10:00N 34°27' E 135°03'815.1
2018-Jun-16 09:30N 34°20' E 135°01'612.1
2018-Jun-16 09:00N 34°14' E 135°03'5 9.1
2018-Jun-16 08:29N 34°12' E 135°09'0 0.0
2018-Jun-16 07:59N 34°12' E 135°09'0 0.0
2018-Jun-16 07:29N 34°12' E 135°09'0 0.0
2018-Jun-16 06:59N 34°12' E 135°09'0 0.0
2018-Jun-16 06:29N 34°12' E 135°09'0 0.0
2018-Jun-16 05:59N 34°12' E 135°09'0 0.0
2018-Jun-16 05:31N 34°12' E 135°09'1 1.4
2018-Jun-16 05:00N 34°13' E 135°08'5 9.7
2018-Jun-16 04:30N 34°09' E 135°04'815.2
2018-Jun-16 04:00N 34°02' E 135°02'815.6
2018-Jun-16 03:30N 33°54' E 135°00'713.8
2018-Jun-16 03:00N 33°48' E 135°04'241 6.0
2018-Jun-14 10:52N 35°06' E 139°41'514.6
2018-Jun-14 10:30N 35°10' E 139°45'612.5
2018-Jun-14 10:00N 35°17' E 139°45'613.2
2018-Jun-14 09:31N 35°23' E 139°42'815.5
2018-Jun-14 09:00N 35°28' E 139°49'612.0
2018-Jun-14 08:30N 35°34' E 139°49'4 7.7
2018-Jun-14 07:58N 35°37' E 139°46'0 0.0
2018-Jun-14 04:37N 35°37' E 139°46'0 0.0
2018-Jun-14 04:25N 35°37' E 139°46'0 0.0
2018-Jun-14 02:55N 35°37' E 139°46'0 0.0
2018-Jun-14 02:25N 35°37' E 139°46'0 0.0
2018-Jun-14 00:28N 35°37' E 139°46'0 0.0
2018-Jun-13 23:49N 35°37' E 139°46'0 0.0
2018-Jun-13 22:10N 35°37' E 139°46'0 0.4
2018-Jun-13 21:59N 35°37' E 139°46'3 5.8
2018-Jun-13 21:30N 35°35' E 139°48'613.0
2018-Jun-13 21:00N 35°30' E 139°52'714.1
2018-Jun-13 20:30N 35°26' E 139°45'3 6.9
2018-Jun-13 20:00N 35°26' E 139°41'0 0.5
2018-Jun-13 19:28N 35°26' E 139°41'0 0.0
2018-Jun-13 18:58N 35°26' E 139°41'0 0.0
2018-Jun-13 18:28N 35°26' E 139°41'0 0.0
2018-Jun-13 17:58N 35°26' E 139°41'0 0.0
2018-Jun-13 17:28N 35°26' E 139°41'0 0.0
2018-Jun-13 16:58N 35°26' E 139°41'0 0.0
2018-Jun-13 16:28N 35°26' E 139°41'0 0.0
2018-Jun-13 15:58N 35°26' E 139°41'0 0.0
2018-Jun-13 15:28N 35°26' E 139°41'0 0.0
2018-Jun-13 14:58N 35°26' E 139°41'0 0.0
2018-Jun-13 14:28N 35°26' E 139°41'0 0.0
2018-Jun-13 13:58N 35°26' E 139°41'0 0.0
2018-Jun-13 13:28N 35°26' E 139°41'0 0.0
2018-Jun-13 12:58N 35°26' E 139°41'0 0.0
2018-Jun-13 12:28N 35°26' E 139°41'0 0.0
2018-Jun-13 11:58N 35°26' E 139°41'0 0.0
2018-Jun-13 11:28N 35°26' E 139°41'0 0.0
2018-Jun-13 10:58N 35°26' E 139°41'0 0.0
2018-Jun-13 10:28N 35°26' E 139°41'0 0.0
2018-Jun-13 09:58N 35°26' E 139°41'0 0.0
2018-Jun-13 09:28N 35°26' E 139°41'0 0.0
2018-Jun-13 08:58N 35°26' E 139°41'0 0.0
2018-Jun-13 08:28N 35°26' E 139°41'0 0.0
2018-Jun-13 07:58N 35°26' E 139°41'0 0.0
2018-Jun-13 07:28N 35°26' E 139°41'0 0.4
2018-Jun-13 07:00N 35°26' E 139°41'2 4.4
2018-Jun-13 06:31N 35°26' E 139°43'3 5.3
2018-Jun-13 06:01N 35°23' E 139°43'3 5.8
2018-Jun-13 05:31N 35°20' E 139°43'611.7
2018-Jun-13 05:00N 35°15' E 139°47'610.9
2018-Jun-13 04:30N 35°10' E 139°47'4 8.7
2018-Jun-13 04:00N 35°06' E 139°45'5 9.0
2018-Jun-13 03:30N 35°03' E 139°41'23811.0
2018-Jun-12 05:48N 33°44' E 135°09'515.8
2018-Jun-12 05:28N 33°48' E 135°05'715.0
2018-Jun-12 05:00N 33°53' E 135°00'815.5
2018-Jun-12 04:30N 34°01' E 134°59'816.0
2018-Jun-12 04:00N 34°09' E 134°59'918.1
2018-Jun-12 03:30N 34°18' E 134°59'816.6
2018-Jun-12 03:00N 34°26' E 135°01'816.6
2018-Jun-12 02:30N 34°34' E 135°03'714.0
2018-Jun-12 01:59N 34°35' E 134°54'816.2
2018-Jun-12 01:30N 34°32' E 134°45'815.5
2018-Jun-12 01:00N 34°29' E 134°37'713.6
2018-Jun-12 00:30N 34°26' E 134°29'713.5
2018-Jun-11 23:59N 34°24' E 134°21'613.2
2018-Jun-11 23:30N 34°24' E 134°13'254 6.8
2018-Jun-10 10:02N 35°03' E 129°09'012.9
2018-Jun-10 10:00N 35°03' E 129°08'3 6.2
2018-Jun-10 09:27N 35°06' E 129°06'0 0.0
2018-Jun-10 08:57N 35°06' E 129°06'0 0.0
2018-Jun-10 08:30N 35°06' E 129°06'0 0.0
2018-Jun-10 08:00N 35°06' E 129°06'0 0.0
2018-Jun-10 07:27N 35°06' E 129°06'0 0.0
2018-Jun-10 07:00N 35°06' E 129°06'0 0.0
2018-Jun-10 06:30N 35°06' E 129°06'0 0.0
2018-Jun-10 06:00N 35°06' E 129°06'0 0.0
2018-Jun-10 05:30N 35°06' E 129°06'0 0.0
2018-Jun-10 05:00N 35°06' E 129°06'0 0.0
2018-Jun-10 04:30N 35°06' E 129°06'0 0.0
2018-Jun-10 04:00N 35°06' E 129°06'0 0.0
2018-Jun-10 03:30N 35°06' E 129°06'0 0.0
2018-Jun-10 03:00N 35°06' E 129°06'0 0.0
2018-Jun-10 02:30N 35°06' E 129°06'0 0.0
2018-Jun-10 02:00N 35°06' E 129°06'0 0.0
2018-Jun-10 01:30N 35°06' E 129°06'0 0.0
2018-Jun-10 01:00N 35°06' E 129°06'0 0.0
2018-Jun-10 00:30N 35°06' E 129°06'0 0.0
2018-Jun-10 00:00N 35°06' E 129°06'0 0.0
2018-Jun-09 23:27N 35°06' E 129°06'0 0.0
2018-Jun-09 23:00N 35°06' E 129°06'0 0.0
2018-Jun-09 22:30N 35°06' E 129°06'0 0.0
2018-Jun-09 22:00N 35°06' E 129°06'0 0.0
2018-Jun-09 21:30N 35°06' E 129°06'0 0.0
2018-Jun-09 21:00N 35°06' E 129°06'0 0.0
2018-Jun-09 20:30N 35°06' E 129°06'0 0.0
2018-Jun-09 20:00N 35°06' E 129°06'0 0.0
2018-Jun-09 19:30N 35°06' E 129°06'0 0.0
2018-Jun-09 19:00N 35°06' E 129°06'0 0.3
2018-Jun-09 18:30N 35°06' E 129°06'4 8.5
2018-Jun-09 18:00N 35°04' E 129°10'  

Dump ship's entire track history